Aviation Digital Data Service (ADDS)

Output produced by METARs form (0309 UTC 18 August 2017)
found at http://www.aviationweather.gov/adds/metars/
 
MZBZ 180000Z 10008KT 9999 FEW020 30/26 A2993 Q1013 NOSIG
TAF MZBZ 180300Z 1806/1906 07008KT 9999 SCT022 
     PROB30 
     TEMPO 1809/1812 5000 SHRA BKN015